createdAt,value
2019-04-29T00:02:15.651Z,99.60
2019-04-29T00:04:44.104Z,99.60
2019-04-29T00:07:13.282Z,99.90
2019-04-29T00:09:41.729Z,99.90
2019-04-29T00:12:10.181Z,99.90
2019-04-29T00:14:40.733Z,99.70
2019-04-29T00:17:16.812Z,99.90
2019-04-29T00:19:52.956Z,99.90
2019-04-29T00:22:21.421Z,99.90
2019-04-29T00:24:49.877Z,99.90
2019-04-29T00:27:18.407Z,99.90
2019-04-29T00:29:46.863Z,99.80
2019-04-29T00:32:15.390Z,99.20
2019-04-29T00:34:43.837Z,98.60
2019-04-29T00:37:14.009Z,98.10
2019-04-29T00:40:00.720Z,98.60
2019-04-29T00:42:47.343Z,99.00
2019-04-29T00:45:15.966Z,99.20
2019-04-29T00:47:44.512Z,98.70
2019-04-29T00:50:13.123Z,98.90
2019-04-29T00:52:41.578Z,98.20
2019-04-29T00:55:11.808Z,97.60
2019-04-29T00:57:40.276Z,97.60
2019-04-29T01:00:11.673Z,97.80
2019-04-29T01:02:40.121Z,97.70
2019-04-29T01:05:09.042Z,97.60
2019-04-29T01:07:37.567Z,97.70
2019-04-29T01:10:06.728Z,98.10
2019-04-29T01:12:36.155Z,97.70
2019-04-29T01:15:08.481Z,98.20
2019-04-29T01:17:36.933Z,98.10
2019-04-29T01:20:07.769Z,98.00
2019-04-29T01:22:36.212Z,98.10
2019-04-29T01:25:06.119Z,98.50
2019-04-29T01:27:39.076Z,98.40
2019-04-29T01:30:09.071Z,97.90
2019-04-29T01:32:37.522Z,97.30
2019-04-29T01:35:07.368Z,97.60
2019-04-29T01:37:37.514Z,97.30
2019-04-29T01:40:08.161Z,97.30
2019-04-29T01:42:38.244Z,97.30
2019-04-29T01:45:06.763Z,97.50
2019-04-29T01:47:35.319Z,97.30
2019-04-29T01:50:05.013Z,97.30
2019-04-29T01:52:33.455Z,97.20
2019-04-29T01:55:01.947Z,97.10
2019-04-29T01:57:30.386Z,97.00
2019-04-29T01:59:58.827Z,97.10
2019-04-29T02:02:27.375Z,97.20
2019-04-29T02:04:55.826Z,97.50
2019-04-29T02:07:24.267Z,97.30
2019-04-29T02:10:00.370Z,97.00
2019-04-29T02:12:28.823Z,96.90
2019-04-29T02:14:57.275Z,96.90
2019-04-29T02:17:25.832Z,97.00
2019-04-29T02:19:54.272Z,97.00
2019-04-29T02:25:14.551Z,97.00
2019-04-29T02:27:42.999Z,97.10
2019-04-29T02:30:12.980Z,97.20
2019-04-29T02:32:41.448Z,97.00
2019-04-29T02:35:09.895Z,97.00
2019-04-29T02:37:39.982Z,97.00
2019-04-29T02:40:10.155Z,97.00
2019-04-29T02:42:49.836Z,97.30
2019-04-29T02:45:19.957Z,97.20
2019-04-29T02:47:48.399Z,97.10
2019-04-29T02:50:16.919Z,97.80
2019-04-29T02:52:47.131Z,97.40
2019-04-29T02:55:17.264Z,97.10
2019-04-29T02:57:47.396Z,97.10
2019-04-29T03:00:20.139Z,97.20
2019-04-29T03:02:56.012Z,97.20
2019-04-29T03:05:28.617Z,97.10
2019-04-29T03:07:57.080Z,97.00
2019-04-29T03:10:25.527Z,96.90
2019-04-29T03:12:53.971Z,96.70
2019-04-29T03:15:30.922Z,97.30
2019-04-29T03:17:59.706Z,98.20
2019-04-29T03:20:29.853Z,98.90
2019-04-29T03:23:08.800Z,99.30
2019-04-29T03:25:37.258Z,99.80
2019-04-29T03:28:05.886Z,99.90
2019-04-29T03:30:34.398Z,99.90
2019-04-29T03:33:02.922Z,99.90
2019-04-29T03:35:31.437Z,99.90
2019-04-29T03:37:59.881Z,99.90
2019-04-29T03:40:28.452Z,99.90
2019-04-29T03:42:56.903Z,99.90
2019-04-29T03:45:25.404Z,99.90
2019-04-29T03:47:53.860Z,99.90
2019-04-29T03:50:22.296Z,99.90
2019-04-29T03:52:50.832Z,99.90
2019-04-29T03:55:37.575Z,99.90
2019-04-29T03:57:49.457Z,99.90
2019-04-29T04:00:18.892Z,99.90
2019-04-29T04:02:55.243Z,99.90
2019-04-29T04:05:28.204Z,99.90
2019-04-29T04:08:01.271Z,99.90
2019-04-29T04:10:29.837Z,99.90
2019-04-29T04:12:58.344Z,99.90
2019-04-29T04:15:26.809Z,99.90
2019-04-29T04:18:03.061Z,99.90
2019-04-29T04:20:31.537Z,99.90
2019-04-29T04:23:00.041Z,99.90
2019-04-29T04:25:28.581Z,99.90
2019-04-29T04:27:57.313Z,99.90
2019-04-29T04:30:27.402Z,99.90
2019-04-29T04:32:57.608Z,99.40
2019-04-29T04:35:27.691Z,99.10
2019-04-29T04:37:56.128Z,99.00
2019-04-29T04:40:26.288Z,98.90
2019-04-29T04:42:54.804Z,98.70
2019-04-29T04:45:23.260Z,98.50
2019-04-29T04:47:51.797Z,98.60
2019-04-29T04:50:20.317Z,98.90
2019-04-29T04:52:48.760Z,98.70
2019-04-29T04:55:18.091Z,98.80
2019-04-29T04:57:46.544Z,98.80
2019-04-29T05:00:22.533Z,98.70
2019-04-29T05:02:51.046Z,98.50
2019-04-29T05:05:19.567Z,98.30
2019-04-29T05:07:48.060Z,98.20
2019-04-29T05:10:16.574Z,98.00
2019-04-29T05:12:45.088Z,97.70
2019-04-29T05:15:13.608Z,97.70
2019-04-29T05:17:42.102Z,97.50
2019-04-29T05:20:11.496Z,97.20
2019-04-29T05:22:41.592Z,97.20
2019-04-29T05:25:10.078Z,97.10
2019-04-29T05:27:38.592Z,96.60
2019-04-29T05:30:08.188Z,96.60
2019-04-29T05:32:36.638Z,96.20
2019-04-29T05:35:10.737Z,96.20
2019-04-29T05:37:46.880Z,96.00
2019-04-29T05:40:16.991Z,95.80
2019-04-29T05:42:48.281Z,95.70
2019-04-29T05:45:31.053Z,95.40
2019-04-29T05:48:01.199Z,95.20
2019-04-29T05:50:37.103Z,95.00
2019-04-29T05:53:11.634Z,94.70
2019-04-29T05:55:40.190Z,94.30
2019-04-29T05:58:11.135Z,94.60
2019-04-29T06:00:41.289Z,94.70
2019-04-29T06:03:09.759Z,94.80
2019-04-29T06:05:38.219Z,94.30
2019-04-29T06:08:06.657Z,93.90
2019-04-29T06:10:35.113Z,94.20
2019-04-29T06:13:03.551Z,95.00
2019-04-29T06:15:32.115Z,94.90
2019-04-29T06:18:00.564Z,94.50
2019-04-29T06:20:29.007Z,94.40
2019-04-29T06:22:57.463Z,94.40
2019-04-29T06:25:25.934Z,94.20
2019-04-29T06:27:54.504Z,94.40
2019-04-29T06:30:23.038Z,94.90
2019-04-29T06:32:51.520Z,95.20
2019-04-29T06:35:27.452Z,95.50
2019-04-29T06:37:55.927Z,96.00
2019-04-29T06:40:24.380Z,95.30
2019-04-29T06:42:53.338Z,96.10
2019-04-29T06:45:23.024Z,95.20
2019-04-29T06:47:51.471Z,95.30
2019-04-29T06:50:20.014Z,95.50
2019-04-29T06:52:48.547Z,95.60
2019-04-29T06:55:17.184Z,95.90
2019-04-29T06:57:45.701Z,95.80
2019-04-29T07:00:22.321Z,96.50
2019-04-29T07:02:49.816Z,96.20
2019-04-29T07:05:19.339Z,95.80
2019-04-29T07:07:47.793Z,94.80
2019-04-29T07:10:20.742Z,95.50
2019-04-29T07:12:47.395Z,95.20
2019-04-29T07:15:19.659Z,95.00
2019-04-29T07:17:48.128Z,95.10
2019-04-29T07:20:16.586Z,96.30
2019-04-29T07:22:45.121Z,97.00
2019-04-29T07:25:13.653Z,97.30
2019-04-29T07:27:44.233Z,97.40
2019-04-29T07:30:12.542Z,96.90
2019-04-29T07:32:42.251Z,96.40
2019-04-29T07:35:11.536Z,97.10
2019-04-29T07:37:40.289Z,96.60
2019-04-29T07:40:09.373Z,96.10
2019-04-29T07:42:38.123Z,96.10
2019-04-29T07:45:11.845Z,96.30
2019-04-29T07:47:55.398Z,96.30
2019-04-29T07:50:12.561Z,96.00
2019-04-29T07:52:41.215Z,95.10
2019-04-29T07:55:09.792Z,96.00
2019-04-29T07:57:38.262Z,96.00
2019-04-29T08:00:12.922Z,95.50
2019-04-29T08:02:38.998Z,95.40
2019-04-29T08:05:12.156Z,95.20
2019-04-29T08:07:41.624Z,94.60
2019-04-29T08:10:22.788Z,95.00
2019-04-29T08:12:42.692Z,94.80
2019-04-29T08:15:12.892Z,94.40
2019-04-29T08:17:41.366Z,94.20
2019-04-29T08:20:09.924Z,94.60
2019-04-29T08:22:38.614Z,95.20
2019-04-29T08:25:08.646Z,94.20
2019-04-29T08:27:40.723Z,94.20
2019-04-29T08:30:11.235Z,93.70
2019-04-29T08:32:38.221Z,93.30
2019-04-29T08:35:07.136Z,93.20
2019-04-29T08:37:38.551Z,93.40
2019-04-29T08:40:15.882Z,92.50
2019-04-29T08:42:51.404Z,93.40
2019-04-29T08:45:21.521Z,93.10
2019-04-29T08:47:52.906Z,92.70
2019-04-29T08:50:21.388Z,93.80
2019-04-29T08:52:51.291Z,92.90
2019-04-29T08:55:19.735Z,93.40
2019-04-29T08:57:50.751Z,93.20
2019-04-29T09:00:19.588Z,91.70
2019-04-29T09:02:49.373Z,92.10
2019-04-29T09:05:18.069Z,90.30
2019-04-29T09:07:46.518Z,90.30
2019-04-29T09:10:15.081Z,90.30
2019-04-29T09:12:43.686Z,90.80
2019-04-29T09:15:12.983Z,90.60
2019-04-29T09:17:41.525Z,91.50
2019-04-29T09:20:10.385Z,92.20
2019-04-29T09:22:49.552Z,92.30
2019-04-29T09:25:26.318Z,92.30
2019-04-29T09:27:56.348Z,92.40
2019-04-29T09:30:24.327Z,91.70
2019-04-29T09:32:52.783Z,91.50
2019-04-29T09:35:21.295Z,89.90
2019-04-29T09:37:53.734Z,90.70
2019-04-29T09:40:21.763Z,90.00
2019-04-29T09:43:15.177Z,87.20
2019-04-29T09:45:38.788Z,87.70
2019-04-29T09:48:07.621Z,89.00
2019-04-29T09:50:39.193Z,90.60
2019-04-29T09:53:06.237Z,90.30
2019-04-29T09:55:35.633Z,90.90
2019-04-29T09:58:05.157Z,91.60
2019-04-29T10:00:47.226Z,90.30
2019-04-29T10:03:17.455Z,91.60
2019-04-29T10:05:56.400Z,91.20
2019-04-29T10:08:24.934Z,91.80
2019-04-29T10:10:53.460Z,93.50
2019-04-29T10:13:21.994Z,94.00
2019-04-29T10:16:00.347Z,93.30
2019-04-29T10:18:31.415Z,93.30
2019-04-29T10:21:01.716Z,92.60
2019-04-29T10:23:30.180Z,91.60
2019-04-29T10:25:58.642Z,91.30
2019-04-29T10:28:27.109Z,90.70
2019-04-29T10:30:55.755Z,90.90
2019-04-29T10:33:25.692Z,89.50
2019-04-29T10:35:54.136Z,89.10
2019-04-29T10:38:22.628Z,87.50
2019-04-29T10:40:56.560Z,85.00
2019-04-29T10:43:37.437Z,85.70
2019-04-29T10:46:23.417Z,89.00
2019-04-29T10:48:59.037Z,87.40
2019-04-29T10:51:28.600Z,88.20
2019-04-29T10:53:57.206Z,88.30
2019-04-29T10:56:25.726Z,90.90
2019-04-29T10:58:54.269Z,90.10
2019-04-29T11:01:30.391Z,88.20
2019-04-29T11:04:00.747Z,91.70
2019-04-29T11:06:31.290Z,91.20
2019-04-29T11:09:01.317Z,92.20
2019-04-29T11:11:32.996Z,93.00
2019-04-29T11:14:01.909Z,92.00
2019-04-29T11:16:46.116Z,91.70
2019-04-29T11:19:05.641Z,92.60
2019-04-29T11:21:34.193Z,93.00
2019-04-29T11:24:04.369Z,92.10
2019-04-29T11:26:34.497Z,90.00
2019-04-29T11:29:06.263Z,90.80
2019-04-29T11:31:35.964Z,89.70
2019-04-29T11:34:06.301Z,90.80
2019-04-29T11:36:39.030Z,90.20
2019-04-29T11:39:09.113Z,91.60
2019-04-29T11:41:38.301Z,91.00
2019-04-29T11:44:06.955Z,89.90
2019-04-29T11:46:37.035Z,90.80
2019-04-29T11:49:17.129Z,91.30
2019-04-29T11:52:05.338Z,90.30
2019-04-29T11:54:17.913Z,90.60
2019-04-29T11:56:43.669Z,90.10
2019-04-29T11:59:25.870Z,89.40
2019-04-29T12:01:59.744Z,90.10
2019-04-29T12:04:33.412Z,86.20
2019-04-29T12:07:00.231Z,87.90
2019-04-29T12:09:30.564Z,87.10
2019-04-29T12:11:59.280Z,86.00
2019-04-29T12:14:33.792Z,87.60
2019-04-29T12:17:05.366Z,89.20
2019-04-29T12:19:41.492Z,89.80
2019-04-29T12:22:19.591Z,90.60
2019-04-29T12:24:40.116Z,90.30
2019-04-29T12:27:10.242Z,87.90
2019-04-29T12:29:41.515Z,85.30
2019-04-29T12:32:29.752Z,82.40
2019-04-29T12:35:21.615Z,80.90
2019-04-29T12:38:10.692Z,79.90
2019-04-29T12:40:45.624Z,81.90
2019-04-29T12:43:21.414Z,82.20
2019-04-29T12:46:00.356Z,78.80
2019-04-29T12:48:28.963Z,79.50
2019-04-29T12:50:57.957Z,78.30
2019-04-29T12:53:26.666Z,77.10
2019-04-29T12:55:56.604Z,75.60
2019-04-29T12:58:25.842Z,77.00
2019-04-29T13:01:00.539Z,78.50
2019-04-29T13:03:46.177Z,80.50
2019-04-29T13:06:23.984Z,84.00
2019-04-29T13:09:01.590Z,84.80
2019-04-29T13:11:36.110Z,86.20
2019-04-29T13:14:01.901Z,86.70
2019-04-29T13:16:31.491Z,88.50
2019-04-29T13:19:11.721Z,88.50
2019-04-29T13:21:39.179Z,91.00
2019-04-29T13:24:17.977Z,92.20
2019-04-29T13:26:37.335Z,92.20
2019-04-29T13:29:06.640Z,91.40
2019-04-29T13:31:38.649Z,91.90
2019-04-29T13:34:22.995Z,91.50
2019-04-29T13:36:37.292Z,91.70
2019-04-29T13:39:08.070Z,90.80
2019-04-29T13:41:56.207Z,90.40
2019-04-29T13:44:08.443Z,90.80
2019-04-29T13:46:51.079Z,89.20
2019-04-29T13:49:28.149Z,87.20
2019-04-29T13:51:58.264Z,90.20
2019-04-29T13:54:26.799Z,90.80
2019-04-29T13:56:56.778Z,90.90
2019-04-29T13:59:27.101Z,90.90
2019-04-29T14:02:01.493Z,92.10
2019-04-29T14:04:32.216Z,91.20
2019-04-29T14:07:00.720Z,91.30
2019-04-29T14:09:29.176Z,91.40
2019-04-29T14:12:02.028Z,91.40
2019-04-29T14:14:28.338Z,90.90
2019-04-29T14:17:17.002Z,90.70
2019-04-29T14:19:41.010Z,90.90
2019-04-29T14:22:01.785Z,90.30
2019-04-29T14:24:30.423Z,87.90
2019-04-29T14:26:58.899Z,88.10
2019-04-29T14:29:28.452Z,89.50
2019-04-29T14:32:01.204Z,90.10
2019-04-29T14:34:38.333Z,88.10
2019-04-29T14:37:25.288Z,88.00
2019-04-29T14:39:37.852Z,87.10
2019-04-29T14:42:10.828Z,86.00
2019-04-29T14:44:54.229Z,86.70
2019-04-29T14:47:39.660Z,86.60
2019-04-29T14:50:10.858Z,87.40
2019-04-29T14:52:39.902Z,90.00
2019-04-29T14:55:08.821Z,88.40
2019-04-29T14:57:38.983Z,89.60
2019-04-29T15:00:09.623Z,91.90
2019-04-29T15:02:38.135Z,93.00
2019-04-29T15:05:12.195Z,91.40
2019-04-29T15:07:37.760Z,91.40
2019-04-29T15:10:08.457Z,91.40
2019-04-29T15:12:51.638Z,90.60
2019-04-29T15:15:25.225Z,90.30
2019-04-29T15:17:55.657Z,91.40
2019-04-29T15:20:40.771Z,91.20
2019-04-29T15:23:09.281Z,91.60
2019-04-29T15:25:37.781Z,92.20
2019-04-29T15:28:06.229Z,93.20
2019-04-29T15:30:36.772Z,92.90
2019-04-29T15:33:04.955Z,94.00
2019-04-29T15:35:33.405Z,94.50
2019-04-29T15:38:01.875Z,93.60
2019-04-29T15:40:30.528Z,94.10
2019-04-29T15:42:59.721Z,93.20
2019-04-29T15:45:32.236Z,94.60
2019-04-29T15:47:58.351Z,93.20
2019-04-29T15:50:26.795Z,92.90
2019-04-29T15:52:58.739Z,92.40
2019-04-29T15:55:25.426Z,92.80
2019-04-29T15:57:54.138Z,93.30
2019-04-29T16:00:23.797Z,93.50
2019-04-29T16:02:53.109Z,93.40
2019-04-29T16:05:35.037Z,94.00
2019-04-29T16:08:21.377Z,93.60
2019-04-29T16:11:07.930Z,94.70
2019-04-29T16:13:36.432Z,94.80
2019-04-29T16:16:04.892Z,95.50
2019-04-29T16:18:33.452Z,94.20
2019-04-29T16:21:01.908Z,94.80
2019-04-29T16:23:32.750Z,94.30
2019-04-29T16:26:00.631Z,94.70
2019-04-29T16:31:05.053Z,95.90
2019-04-29T16:33:29.441Z,96.30
2019-04-29T16:36:05.001Z,96.40
2019-04-29T16:38:28.121Z,97.00
2019-04-29T16:41:12.406Z,97.30
2019-04-29T16:43:42.297Z,96.80
2019-04-29T16:46:24.286Z,96.60
2019-04-29T16:48:48.329Z,97.10
2019-04-29T16:51:16.920Z,97.20
2019-04-29T16:53:46.429Z,97.10
2019-04-29T16:56:16.212Z,97.20
2019-04-29T16:58:45.134Z,97.90
2019-04-29T17:01:13.653Z,98.00
2019-04-29T17:03:42.103Z,98.00
2019-04-29T17:06:10.633Z,97.70
2019-04-29T17:08:41.107Z,97.50
2019-04-29T17:11:17.583Z,97.40
2019-04-29T17:13:45.167Z,97.40
2019-04-29T17:16:15.268Z,97.60
2019-04-29T17:18:43.734Z,97.50
2019-04-29T17:21:12.478Z,97.80
2019-04-29T17:23:40.993Z,97.50
2019-04-29T17:26:09.875Z,98.10
2019-04-29T17:28:43.165Z,97.90
2019-04-29T17:31:32.100Z,97.70
2019-04-29T17:34:02.940Z,97.60
2019-04-29T17:35:19.387Z,95.90
2019-04-29T17:36:31.638Z,97.80
2019-04-29T17:39:00.102Z,98.20
2019-04-29T17:41:28.544Z,98.40
2019-04-29T17:44:18.761Z,98.40
2019-04-29T17:46:53.884Z,98.70
2019-04-29T17:49:30.435Z,98.70
2019-04-29T17:52:02.916Z,99.00
2019-04-29T17:54:35.149Z,99.00
2019-04-29T17:57:26.355Z,99.40
2019-04-29T17:59:51.771Z,99.80
2019-04-29T18:02:27.857Z,99.90
2019-04-29T18:05:05.550Z,99.90
2019-04-29T18:07:35.520Z,99.90
2019-04-29T18:10:08.081Z,99.90
2019-04-29T18:12:41.079Z,99.90
2019-04-29T18:15:10.709Z,99.90
2019-04-29T18:17:37.954Z,99.90
2019-04-29T18:20:32.958Z,99.90
2019-04-29T18:23:11.077Z,99.90
2019-04-29T18:25:39.863Z,99.90
2019-04-29T18:28:11.044Z,99.90
2019-04-29T18:30:39.496Z,99.90
2019-04-29T18:33:08.044Z,99.90
2019-04-29T18:35:36.516Z,99.90
2019-04-29T18:38:07.436Z,99.90
2019-04-29T18:40:41.744Z,99.90
2019-04-29T18:43:05.485Z,99.90
2019-04-29T18:45:35.782Z,99.90
2019-04-29T18:48:08.507Z,99.90
2019-04-29T18:50:38.880Z,99.90
2019-04-29T18:53:09.735Z,99.90
2019-04-29T18:55:38.319Z,99.90
2019-04-29T18:58:06.799Z,99.90
2019-04-29T19:00:35.379Z,99.90
2019-04-29T19:03:04.058Z,99.90
2019-04-29T19:05:50.748Z,99.90
2019-04-29T19:08:23.126Z,99.90
2019-04-29T19:10:51.011Z,99.90
2019-04-29T19:13:19.671Z,99.90
2019-04-29T19:15:48.680Z,99.90
2019-04-29T19:18:20.902Z,99.90
2019-04-29T19:20:52.604Z,99.90
2019-04-29T19:23:22.349Z,99.90
2019-04-29T19:25:49.771Z,99.90
2019-04-29T19:28:29.617Z,99.90
2019-04-29T19:30:48.421Z,99.90
2019-04-29T19:33:16.991Z,99.90
2019-04-29T19:35:45.467Z,99.90
2019-04-29T19:38:15.648Z,99.90
2019-04-29T19:40:44.317Z,99.90
2019-04-29T19:43:17.125Z,99.90
2019-04-29T19:45:44.682Z,99.90
2019-04-29T19:48:13.179Z,99.90
2019-04-29T19:50:41.704Z,99.90
2019-04-29T19:53:11.312Z,99.90
2019-04-29T19:55:42.125Z,99.90
2019-04-29T19:58:12.508Z,99.90
2019-04-29T20:00:40.770Z,99.90
2019-04-29T20:03:22.707Z,99.90
2019-04-29T20:05:51.557Z,99.90
2019-04-29T20:08:41.260Z,99.90
2019-04-29T20:10:52.111Z,99.90
2019-04-29T20:13:29.857Z,99.90
2019-04-29T20:16:12.776Z,99.90
2019-04-29T20:18:56.095Z,99.90
2019-04-29T20:21:24.669Z,99.90
2019-04-29T20:23:46.621Z,99.90
2019-04-29T20:26:23.060Z,99.90
2019-04-29T20:28:46.020Z,99.90
2019-04-29T20:31:19.235Z,99.90
2019-04-29T20:33:46.716Z,99.90
2019-04-29T20:36:16.320Z,99.90
2019-04-29T20:38:45.735Z,99.90
2019-04-29T20:41:19.595Z,99.90
2019-04-29T20:43:46.190Z,99.90
2019-04-29T20:46:15.977Z,99.90
2019-04-29T20:48:45.652Z,99.90
2019-04-29T20:51:16.494Z,99.90
2019-04-29T20:53:46.523Z,99.90
2019-04-29T20:56:23.678Z,99.90
2019-04-29T20:58:46.920Z,99.90
2019-04-29T21:01:17.358Z,99.90
2019-04-29T21:03:51.147Z,99.90
2019-04-29T21:06:16.273Z,99.90
2019-04-29T21:08:50.891Z,99.90
2019-04-29T21:11:21.103Z,99.90
2019-04-29T21:14:05.496Z,99.90
2019-04-29T21:16:39.382Z,99.90
2019-04-29T21:19:08.924Z,99.90
2019-04-29T21:21:41.833Z,99.90
2019-04-29T21:24:14.032Z,99.90
2019-04-29T21:26:44.554Z,99.90
2019-04-29T21:29:10.674Z,99.90
2019-04-29T21:31:38.511Z,99.90
2019-04-29T21:34:06.971Z,99.90
2019-04-29T21:36:48.843Z,99.90
2019-04-29T21:39:21.729Z,99.90
2019-04-29T21:41:55.468Z,99.90
2019-04-29T21:44:27.860Z,99.90
2019-04-29T21:46:55.236Z,99.90
2019-04-29T21:49:25.695Z,99.90
2019-04-29T21:51:55.531Z,99.90
2019-04-29T21:54:24.169Z,99.90
2019-04-29T21:56:53.084Z,99.90
2019-04-29T21:59:21.552Z,99.90
2019-04-29T22:01:50.077Z,99.90
2019-04-29T22:04:18.523Z,99.90
2019-04-29T22:06:47.515Z,99.90
2019-04-29T22:09:16.490Z,99.90
2019-04-29T22:11:46.880Z,99.90
2019-04-29T22:14:15.660Z,99.90
2019-04-29T22:16:49.130Z,99.90
2019-04-29T22:19:14.871Z,99.90
2019-04-29T22:21:45.917Z,99.90
2019-04-29T22:24:14.591Z,99.90
2019-04-29T22:26:44.957Z,99.90
2019-04-29T22:29:13.235Z,99.90
2019-04-29T22:31:41.847Z,99.90
2019-04-29T22:34:15.140Z,99.90
2019-04-29T22:36:40.499Z,99.90
2019-04-29T22:39:08.966Z,99.90
2019-04-29T22:41:42.250Z,99.90
2019-04-29T22:44:16.742Z,99.90
2019-04-29T22:46:44.792Z,99.90
2019-04-29T22:49:12.749Z,99.90
2019-04-29T22:51:41.201Z,99.90
2019-04-29T22:54:09.661Z,99.90
2019-04-29T22:56:40.555Z,99.90
2019-04-29T22:59:08.295Z,99.90
2019-04-29T23:01:42.078Z,99.90
2019-04-29T23:04:09.659Z,99.90
2019-04-29T23:06:39.814Z,99.90
2019-04-29T23:09:12.135Z,99.90
2019-04-29T23:11:39.452Z,99.90
2019-04-29T23:14:10.067Z,99.90
2019-04-29T23:16:38.451Z,99.90
2019-04-29T23:19:09.865Z,99.90
2019-04-29T23:21:55.987Z,99.90
2019-04-29T23:24:31.963Z,99.90
2019-04-29T23:27:00.506Z,99.90
2019-04-29T23:29:29.004Z,99.90
2019-04-29T23:31:59.668Z,99.90
2019-04-29T23:34:30.503Z,99.90
2019-04-29T23:36:58.950Z,99.90
2019-04-29T23:39:27.413Z,99.90
2019-04-29T23:41:55.924Z,99.90
2019-04-29T23:44:24.385Z,99.90
2019-04-29T23:46:52.856Z,99.90
2019-04-29T23:49:21.320Z,99.90
2019-04-29T23:51:49.764Z,99.90
2019-04-29T23:54:18.218Z,99.90
2019-04-29T23:57:03.273Z,99.90
2019-04-29T23:59:38.902Z,99.90
